JTC554 KBED-TTPP
Flight info
| Callsign | JTC554 |
|---|---|
| Flight time | N/A |
| Altitude | 41000 |
| Route | DCT BOS DCT MVY DCT TILED DCT CATZZ DCT 22N060W DCT OMIKI DCT POS DCT |
| Aircraft | C750/M-SDE3FGHIRWY/LB1 |
Departure
| Time | 2026-04-21 13:41 |
|---|---|
| Airport | Laurence G Hanscom Field (KBED) |
Arrival
| Time | N/A |
|---|---|
| Airport | Piarco International Airport (TTPP) |
| Time | Latitude | Longitude | Altitude | Speed | Heading |
|---|---|---|---|---|---|
| 2026-04-21 13:38 | 42.46792 | -71.27549 | 132 ft | 0 kts | 312° |
| 2026-04-21 13:40 | 42.46793 | -71.27551 | 132 ft | 2 kts | 313° |
| 2026-04-21 13:40 | 42.46860 | -71.27575 | 134 ft | 8 kts | 4° |
| 2026-04-21 13:40 | 42.46943 | -71.27591 | 135 ft | 14 kts | 324° |
| 2026-04-21 13:40 | 42.46977 | -71.27813 | 135 ft | 61 kts | 277° |
| 2026-04-21 13:41 | 42.47032 | -71.28408 | 134 ft | 123 kts | 277° |
| 2026-04-21 13:41 | 42.47159 | -71.29733 | 351 ft | 150 kts | 277° |
| 2026-04-21 13:41 | 42.46796 | -71.31125 | 550 ft | 179 kts | 224° |
| 2026-04-21 13:41 | 42.45553 | -71.31626 | 900 ft | 199 kts | 168° |
| 2026-04-21 13:42 | 42.44467 | -71.30593 | 1727 ft | 193 kts | 122° |
| 2026-04-21 13:42 | 42.43842 | -71.29013 | 2494 ft | 194 kts | 115° |
| 2026-04-21 13:42 | 42.43337 | -71.27248 | 3021 ft | 210 kts | 106° |
| 2026-04-21 13:42 | 42.42880 | -71.25254 | 3431 ft | 233 kts | 106° |
| 2026-04-21 13:43 | 42.42316 | -71.23074 | 3801 ft | 256 kts | 109° |
| 2026-04-21 13:43 | 42.41679 | -71.20814 | 4649 ft | 258 kts | 109° |
| 2026-04-21 13:43 | 42.41043 | -71.18501 | 5392 ft | 265 kts | 109° |
| 2026-04-21 13:43 | 42.40409 | -71.16136 | 6158 ft | 270 kts | 109° |
| 2026-04-21 13:44 | 42.39759 | -71.13717 | 6911 ft | 277 kts | 110° |
| 2026-04-21 13:44 | 42.39090 | -71.11252 | 7702 ft | 281 kts | 109° |
| 2026-04-21 13:44 | 42.38409 | -71.08752 | 8550 ft | 286 kts | 109° |
| 2026-04-21 13:44 | 42.37719 | -71.06209 | 9391 ft | 291 kts | 109° |
| 2026-04-21 13:45 | 42.37015 | -71.03620 | 10195 ft | 296 kts | 109° |
| 2026-04-21 13:45 | 42.36214 | -71.00941 | 10394 ft | 321 kts | 117° |
| 2026-04-21 13:45 | 42.34629 | -70.98633 | 10292 ft | 350 kts | 147° |
| 2026-04-21 13:45 | 42.32381 | -70.97348 | 10259 ft | 351 kts | 165° |
| 2026-04-21 13:46 | 42.30001 | -70.96539 | 10334 ft | 353 kts | 169° |
| 2026-04-21 13:46 | 42.27607 | -70.95792 | 10399 ft | 354 kts | 167° |
| 2026-04-21 13:46 | 42.25232 | -70.94851 | 10465 ft | 357 kts | 163° |
| 2026-04-21 13:46 | 42.22863 | -70.93806 | 11098 ft | 358 kts | 163° |
| 2026-04-21 13:47 | 42.20458 | -70.92842 | 11662 ft | 364 kts | 166° |
| 2026-04-21 13:47 | 42.17997 | -70.91923 | 12226 ft | 370 kts | 166° |
| 2026-04-21 13:47 | 42.15510 | -70.90951 | 12805 ft | 375 kts | 165° |
| 2026-04-21 13:47 | 42.13022 | -70.89938 | 13347 ft | 381 kts | 165° |
| 2026-04-21 13:48 | 42.10467 | -70.88919 | 13905 ft | 386 kts | 165° |
| 2026-04-21 13:48 | 42.07869 | -70.87909 | 14441 ft | 391 kts | 165° |
| 2026-04-21 13:48 | 42.05253 | -70.86883 | 15001 ft | 394 kts | 165° |
| 2026-04-21 13:48 | 42.02601 | -70.85831 | 15467 ft | 399 kts | 165° |
| 2026-04-21 13:49 | 41.99919 | -70.84771 | 15965 ft | 404 kts | 165° |
| 2026-04-21 13:49 | 41.97203 | -70.83706 | 16453 ft | 409 kts | 165° |
| 2026-04-21 13:49 | 41.94456 | -70.82629 | 16974 ft | 414 kts | 165° |
| 2026-04-21 13:49 | 41.91671 | -70.81533 | 17503 ft | 419 kts | 165° |
| 2026-04-21 13:50 | 41.88855 | -70.80427 | 18032 ft | 424 kts | 165° |
| 2026-04-21 13:50 | 41.86003 | -70.79310 | 18566 ft | 430 kts | 165° |
| 2026-04-21 13:50 | 41.83116 | -70.78181 | 19066 ft | 434 kts | 165° |
| 2026-04-21 13:50 | 41.80208 | -70.77042 | 19618 ft | 437 kts | 165° |
| 2026-04-21 13:51 | 41.77274 | -70.75894 | 20144 ft | 440 kts | 165° |
| 2026-04-21 13:51 | 41.74327 | -70.74744 | 20676 ft | 443 kts | 165° |
| 2026-04-21 13:51 | 41.71354 | -70.73585 | 21218 ft | 446 kts | 165° |
| 2026-04-21 13:51 | 41.68361 | -70.72418 | 21746 ft | 449 kts | 165° |
| 2026-04-21 13:52 | 41.65349 | -70.71245 | 22256 ft | 453 kts | 165° |
| 2026-04-21 13:52 | 41.62313 | -70.70064 | 22784 ft | 456 kts | 165° |
| 2026-04-21 13:52 | 41.59257 | -70.68877 | 23280 ft | 459 kts | 165° |
| 2026-04-21 13:52 | 41.56225 | -70.67700 | 23749 ft | 462 kts | 165° |
| 2026-04-21 13:53 | 41.53130 | -70.66499 | 24192 ft | 465 kts | 165° |
| 2026-04-21 13:53 | 41.50011 | -70.65291 | 24596 ft | 468 kts | 165° |
| 2026-04-21 13:53 | 41.46867 | -70.64074 | 24989 ft | 472 kts | 166° |
| 2026-04-21 13:53 | 41.43704 | -70.62851 | 25397 ft | 475 kts | 166° |
| 2026-04-21 13:54 | 41.40519 | -70.61621 | 25801 ft | 478 kts | 166° |
| 2026-04-21 13:54 | 41.37345 | -70.60244 | 26155 ft | 482 kts | 163° |
| 2026-04-21 13:54 | 41.34138 | -70.58901 | 26547 ft | 485 kts | 165° |
| 2026-04-21 13:54 | 41.30893 | -70.57623 | 26915 ft | 489 kts | 165° |
| 2026-04-21 13:55 | 41.27633 | -70.56259 | 27335 ft | 492 kts | 163° |
| 2026-04-21 13:55 | 41.24369 | -70.54826 | 27737 ft | 496 kts | 163° |
| 2026-04-21 13:55 | 41.21071 | -70.53425 | 28172 ft | 498 kts | 164° |
| 2026-04-21 13:55 | 41.17747 | -70.52067 | 28603 ft | 501 kts | 165° |
| 2026-04-21 13:56 | 41.14401 | -70.50679 | 29006 ft | 505 kts | 164° |
| 2026-04-21 13:56 | 41.11087 | -70.49266 | 29403 ft | 508 kts | 163° |
| 2026-04-21 13:56 | 41.07708 | -70.47839 | 29800 ft | 511 kts | 164° |
| 2026-04-21 13:56 | 41.04292 | -70.46426 | 30189 ft | 515 kts | 164° |
| 2026-04-21 13:57 | 41.00863 | -70.45004 | 30552 ft | 518 kts | 164° |
| 2026-04-21 13:57 | 40.97420 | -70.43558 | 30875 ft | 521 kts | 164° |
| 2026-04-21 13:57 | 40.93951 | -70.42103 | 31211 ft | 523 kts | 164° |
| 2026-04-21 13:57 | 40.90475 | -70.40662 | 31617 ft | 523 kts | 164° |
| 2026-04-21 13:58 | 40.86997 | -70.39222 | 32114 ft | 522 kts | 164° |
| 2026-04-21 13:58 | 40.83536 | -70.37780 | 32582 ft | 522 kts | 164° |
| 2026-04-21 13:58 | 40.80066 | -70.36336 | 33047 ft | 521 kts | 165° |
| 2026-04-21 13:58 | 40.76607 | -70.34905 | 33529 ft | 521 kts | 165° |
| 2026-04-21 13:59 | 40.73150 | -70.33476 | 34009 ft | 520 kts | 165° |
| 2026-04-21 13:59 | 40.69700 | -70.32047 | 34472 ft | 519 kts | 165° |
| 2026-04-21 13:59 | 40.66256 | -70.30622 | 34866 ft | 518 kts | 165° |
| 2026-04-21 13:59 | 40.62818 | -70.29205 | 35343 ft | 516 kts | 165° |
| 2026-04-21 14:00 | 40.59398 | -70.27795 | 35840 ft | 513 kts | 165° |
| 2026-04-21 14:00 | 40.55998 | -70.26395 | 36336 ft | 510 kts | 165° |
| 2026-04-21 14:00 | 40.52657 | -70.25020 | 36841 ft | 508 kts | 165° |
| 2026-04-21 14:00 | 40.49291 | -70.23637 | 37359 ft | 505 kts | 165° |
| 2026-04-21 14:01 | 40.45950 | -70.22265 | 37863 ft | 502 kts | 165° |
| 2026-04-21 14:01 | 40.42620 | -70.20900 | 38385 ft | 500 kts | 165° |
| 2026-04-21 14:01 | 40.39321 | -70.19548 | 38947 ft | 496 kts | 165° |
| 2026-04-21 14:01 | 40.36630 | -70.18446 | 39400 ft | 492 kts | 165° |
| 2026-04-21 14:02 | 40.33370 | -70.17114 | 39800 ft | 490 kts | 165° |
| 2026-04-21 14:02 | 40.30115 | -70.15785 | 40153 ft | 489 kts | 165° |
| 2026-04-21 14:02 | 40.26867 | -70.14459 | 40523 ft | 488 kts | 165° |
| 2026-04-21 14:03 | 40.20395 | -70.11821 | 41257 ft | 486 kts | 166° |
| 2026-04-21 14:03 | 40.17147 | -70.10501 | 41365 ft | 492 kts | 166° |
| 2026-04-21 14:03 | 40.13851 | -70.09165 | 41369 ft | 500 kts | 165° |
| 2026-04-21 14:04 | 40.07107 | -70.06425 | 41374 ft | 515 kts | 165° |
| 2026-04-21 14:04 | 40.00156 | -70.03612 | 41365 ft | 530 kts | 165° |
| 2026-04-21 14:05 | 39.93038 | -70.00734 | 41367 ft | 538 kts | 165° |
| 2026-04-21 14:05 | 39.85869 | -69.97844 | 41372 ft | 540 kts | 165° |
| 2026-04-21 14:06 | 39.78687 | -69.94945 | 41349 ft | 541 kts | 165° |
| 2026-04-21 14:06 | 39.71512 | -69.92062 | 41339 ft | 539 kts | 165° |
| 2026-04-21 14:07 | 39.64384 | -69.89210 | 41349 ft | 539 kts | 166° |
| 2026-04-21 14:07 | 39.57204 | -69.86352 | 41357 ft | 540 kts | 166° |
| 2026-04-21 14:08 | 39.50048 | -69.83490 | 41342 ft | 538 kts | 166° |
| 2026-04-21 14:08 | 39.42891 | -69.80647 | 41343 ft | 538 kts | 166° |
| 2026-04-21 14:09 | 39.35731 | -69.77800 | 41341 ft | 538 kts | 166° |
| 2026-04-21 14:09 | 39.28572 | -69.74967 | 41339 ft | 539 kts | 166° |
| 2026-04-21 14:10 | 39.21405 | -69.72129 | 41338 ft | 538 kts | 166° |
| 2026-04-21 14:10 | 39.14232 | -69.69302 | 41333 ft | 538 kts | 166° |
| 2026-04-21 14:11 | 39.07119 | -69.66499 | 41344 ft | 538 kts | 166° |
| 2026-04-21 14:11 | 38.99953 | -69.63686 | 41329 ft | 538 kts | 166° |
| 2026-04-21 14:12 | 38.92778 | -69.60871 | 41327 ft | 538 kts | 166° |
| 2026-04-21 14:12 | 38.85608 | -69.58066 | 41326 ft | 538 kts | 166° |
| 2026-04-21 14:13 | 38.78438 | -69.55267 | 41329 ft | 538 kts | 166° |
| 2026-04-21 14:13 | 38.71270 | -69.52474 | 41325 ft | 538 kts | 166° |
| 2026-04-21 14:14 | 38.64142 | -69.49703 | 41322 ft | 535 kts | 167° |
| 2026-04-21 14:14 | 38.57018 | -69.46939 | 41329 ft | 535 kts | 167° |
| 2026-04-21 14:15 | 38.49887 | -69.44178 | 41325 ft | 535 kts | 167° |
| 2026-04-21 14:15 | 38.42802 | -69.41440 | 41323 ft | 535 kts | 167° |
| 2026-04-21 14:16 | 38.35673 | -69.38692 | 41319 ft | 535 kts | 167° |
| 2026-04-21 14:16 | 38.28539 | -69.35946 | 41312 ft | 535 kts | 167° |
| 2026-04-21 14:17 | 38.21411 | -69.33210 | 41309 ft | 535 kts | 167° |
| 2026-04-21 14:17 | 38.14279 | -69.30476 | 41313 ft | 535 kts | 167° |
| 2026-04-21 14:18 | 38.07138 | -69.27746 | 41317 ft | 536 kts | 167° |
| 2026-04-21 14:18 | 37.99995 | -69.25019 | 41309 ft | 536 kts | 167° |
| 2026-04-21 14:19 | 37.92837 | -69.22293 | 41304 ft | 536 kts | 167° |
| 2026-04-21 14:19 | 37.85691 | -69.19578 | 41302 ft | 536 kts | 167° |
| 2026-04-21 14:20 | 37.78558 | -69.16870 | 41301 ft | 534 kts | 167° |
| 2026-04-21 14:20 | 37.71432 | -69.14174 | 41297 ft | 534 kts | 167° |
| 2026-04-21 14:21 | 37.64313 | -69.11483 | 41294 ft | 534 kts | 167° |
| 2026-04-21 14:21 | 37.57232 | -69.08814 | 41293 ft | 534 kts | 167° |
| 2026-04-21 14:22 | 37.50106 | -69.06132 | 41293 ft | 534 kts | 167° |
| 2026-04-21 14:22 | 37.42980 | -69.03456 | 41275 ft | 533 kts | 167° |
| 2026-04-21 14:23 | 37.35883 | -69.00797 | 41285 ft | 532 kts | 167° |
| 2026-04-21 14:23 | 37.28782 | -68.98140 | 41277 ft | 532 kts | 167° |
| 2026-04-21 14:24 | 37.21663 | -68.95538 | 41275 ft | 532 kts | 168° |
| 2026-04-21 14:24 | 37.15738 | -68.93496 | 41276 ft | 530 kts | 168° |
| 2026-04-21 14:25 | 37.07483 | -68.90535 | 41276 ft | 531 kts | 168° |
| 2026-04-21 14:25 | 37.01512 | -68.88452 | 41278 ft | 531 kts | 168° |
| 2026-04-21 14:26 | 36.94405 | -68.85933 | 41245 ft | 530 kts | 169° |
| 2026-04-21 14:26 | 36.89717 | -68.84284 | 41261 ft | 529 kts | 169° |
| 2026-04-21 14:27 | 36.84224 | -68.82364 | 41266 ft | 529 kts | 169° |
| 2026-04-21 14:27 | 36.77136 | -68.79868 | 41258 ft | 529 kts | 169° |
| 2026-04-21 14:28 | 36.70049 | -68.77393 | 41240 ft | 529 kts | 169° |
| 2026-04-21 14:28 | 36.62941 | -68.74906 | 41258 ft | 531 kts | 169° |
| 2026-04-21 14:29 | 36.55825 | -68.72425 | 41251 ft | 531 kts | 169° |
| 2026-04-21 14:29 | 36.48708 | -68.69947 | 41252 ft | 531 kts | 169° |
| 2026-04-21 14:30 | 36.41587 | -68.67473 | 41249 ft | 531 kts | 169° |
| 2026-04-21 14:30 | 36.34467 | -68.65004 | 41249 ft | 531 kts | 169° |
| 2026-04-21 14:31 | 36.27350 | -68.62540 | 41249 ft | 531 kts | 169° |
| 2026-04-21 14:31 | 36.20222 | -68.60077 | 41249 ft | 531 kts | 169° |
| 2026-04-21 14:32 | 36.13087 | -68.57617 | 41254 ft | 531 kts | 169° |
| 2026-04-21 14:32 | 36.06002 | -68.55178 | 41253 ft | 531 kts | 169° |
| 2026-04-21 14:33 | 35.98873 | -68.52730 | 41243 ft | 531 kts | 169° |
| 2026-04-21 14:33 | 35.91819 | -68.50309 | 41251 ft | 525 kts | 169° |
| 2026-04-21 14:34 | 35.84769 | -68.47900 | 41248 ft | 526 kts | 169° |
| 2026-04-21 14:34 | 35.77712 | -68.45486 | 41245 ft | 526 kts | 169° |
| 2026-04-21 14:35 | 35.70651 | -68.43080 | 41238 ft | 525 kts | 169° |
| 2026-04-21 14:35 | 35.63616 | -68.40685 | 41243 ft | 525 kts | 169° |
| 2026-04-21 14:36 | 35.56608 | -68.38304 | 41247 ft | 525 kts | 169° |
| 2026-04-21 14:36 | 35.49562 | -68.35914 | 41247 ft | 525 kts | 169° |
| 2026-04-21 14:37 | 35.42504 | -68.33526 | 41247 ft | 526 kts | 170° |
| 2026-04-21 14:37 | 35.35451 | -68.31141 | 41244 ft | 526 kts | 170° |
| 2026-04-21 14:38 | 35.28386 | -68.28759 | 41246 ft | 526 kts | 170° |
| 2026-04-21 14:38 | 35.21336 | -68.26385 | 41224 ft | 526 kts | 170° |
| 2026-04-21 14:39 | 35.14254 | -68.24006 | 41244 ft | 527 kts | 170° |
| 2026-04-21 14:39 | 35.07238 | -68.21651 | 41245 ft | 527 kts | 170° |
| 2026-04-21 14:40 | 35.00167 | -68.19284 | 41244 ft | 527 kts | 170° |
| 2026-04-21 14:40 | 34.93134 | -68.16930 | 41243 ft | 523 kts | 170° |
| 2026-04-21 14:41 | 34.86113 | -68.14592 | 41239 ft | 523 kts | 170° |
| 2026-04-21 14:41 | 34.79084 | -68.12247 | 41236 ft | 523 kts | 170° |
| 2026-04-21 14:42 | 34.72058 | -68.09913 | 41239 ft | 523 kts | 170° |
| 2026-04-21 14:42 | 34.65017 | -68.07577 | 41245 ft | 525 kts | 171° |
| 2026-04-21 14:43 | 34.57978 | -68.05242 | 41243 ft | 524 kts | 171° |
| 2026-04-21 14:43 | 34.50937 | -68.02915 | 41243 ft | 524 kts | 171° |
| 2026-04-21 14:44 | 34.43944 | -68.00605 | 41238 ft | 525 kts | 171° |
| 2026-04-21 14:44 | 34.36881 | -67.98278 | 41243 ft | 526 kts | 171° |
| 2026-04-21 14:45 | 34.29815 | -67.95952 | 41246 ft | 526 kts | 171° |
| 2026-04-21 14:45 | 34.22747 | -67.93631 | 41247 ft | 526 kts | 171° |
| 2026-04-21 14:46 | 34.15677 | -67.91314 | 41233 ft | 528 kts | 171° |
| 2026-04-21 14:46 | 34.08580 | -67.88990 | 41237 ft | 527 kts | 171° |
| 2026-04-21 14:47 | 34.01497 | -67.86677 | 41241 ft | 527 kts | 171° |
| 2026-04-21 14:47 | 33.94411 | -67.84365 | 41238 ft | 527 kts | 171° |
| 2026-04-21 14:48 | 33.87370 | -67.82072 | 41231 ft | 527 kts | 171° |
| 2026-04-21 14:48 | 33.80289 | -67.79770 | 41235 ft | 527 kts | 171° |
| 2026-04-21 14:49 | 33.73204 | -67.77472 | 41236 ft | 527 kts | 171° |
| 2026-04-21 14:49 | 33.66114 | -67.75175 | 41230 ft | 527 kts | 171° |
| 2026-04-21 14:50 | 33.60209 | -67.73266 | 41232 ft | 529 kts | 171° |
| 2026-04-21 14:50 | 33.51901 | -67.70582 | 41234 ft | 529 kts | 171° |
| 2026-04-21 14:51 | 33.44793 | -67.68292 | 41238 ft | 529 kts | 171° |
| 2026-04-21 14:51 | 33.37732 | -67.66021 | 41230 ft | 530 kts | 171° |
| 2026-04-21 14:52 | 33.30615 | -67.63733 | 41223 ft | 529 kts | 171° |
| 2026-04-21 14:52 | 33.23498 | -67.61452 | 41220 ft | 529 kts | 171° |
| 2026-04-21 14:53 | 33.16381 | -67.59173 | 41222 ft | 529 kts | 171° |
| 2026-04-21 14:53 | 33.09263 | -67.56900 | 41224 ft | 529 kts | 171° |
| 2026-04-21 14:54 | 33.02148 | -67.54628 | 41224 ft | 529 kts | 171° |
| 2026-04-21 14:54 | 32.95056 | -67.52369 | 41220 ft | 526 kts | 171° |
| 2026-04-21 14:55 | 32.88012 | -67.50131 | 41198 ft | 526 kts | 171° |
| 2026-04-21 14:55 | 32.80917 | -67.47878 | 41227 ft | 527 kts | 171° |
| 2026-04-21 14:56 | 32.73831 | -67.45632 | 41220 ft | 527 kts | 171° |
| 2026-04-21 14:56 | 32.66747 | -67.43391 | 41225 ft | 527 kts | 171° |
| 2026-04-21 14:57 | 32.59658 | -67.41151 | 41221 ft | 528 kts | 172° |
| 2026-04-21 14:57 | 32.52560 | -67.38912 | 41221 ft | 527 kts | 172° |
| 2026-04-21 14:58 | 32.45466 | -67.36679 | 41216 ft | 527 kts | 172° |
| 2026-04-21 14:58 | 32.38367 | -67.34447 | 41218 ft | 527 kts | 172° |
| 2026-04-21 14:59 | 32.31272 | -67.32222 | 41219 ft | 529 kts | 172° |
| 2026-04-21 14:59 | 32.24202 | -67.30005 | 41217 ft | 529 kts | 172° |
| 2026-04-21 15:00 | 32.17091 | -67.27781 | 41205 ft | 528 kts | 172° |
| 2026-04-21 15:00 | 32.09982 | -67.25561 | 41204 ft | 528 kts | 172° |
| 2026-04-21 15:01 | 32.02867 | -67.23344 | 41211 ft | 529 kts | 172° |
| 2026-04-21 15:01 | 31.95748 | -67.21124 | 41207 ft | 527 kts | 172° |
| 2026-04-21 15:02 | 31.88671 | -67.18928 | 41203 ft | 526 kts | 173° |
| 2026-04-21 15:02 | 31.81588 | -67.16727 | 41168 ft | 526 kts | 173° |
| 2026-04-21 15:03 | 31.74499 | -67.14534 | 41202 ft | 527 kts | 173° |
| 2026-04-21 15:03 | 31.67402 | -67.12335 | 41202 ft | 527 kts | 173° |
| 2026-04-21 15:04 | 31.60355 | -67.10161 | 41199 ft | 527 kts | 173° |
| 2026-04-21 15:04 | 31.53265 | -67.07973 | 41180 ft | 526 kts | 173° |
| 2026-04-21 15:05 | 31.46166 | -67.05789 | 41199 ft | 527 kts | 173° |
| 2026-04-21 15:05 | 31.35519 | -67.02517 | 41202 ft | 527 kts | 173° |
| 2026-04-21 15:06 | 31.28427 | -67.00341 | 41192 ft | 527 kts | 173° |
| 2026-04-21 15:06 | 31.21327 | -66.98168 | 41192 ft | 527 kts | 173° |
| 2026-04-21 15:07 | 31.14227 | -66.95997 | 41193 ft | 527 kts | 173° |
| 2026-04-21 15:07 | 31.07275 | -66.92979 | 41181 ft | 545 kts | 159° |
| 2026-04-21 15:08 | 31.00920 | -66.87960 | 41188 ft | 553 kts | 151° |
| 2026-04-21 15:08 | 30.94696 | -66.82700 | 41190 ft | 554 kts | 152° |
| 2026-04-21 15:09 | 30.88448 | -66.77431 | 41192 ft | 555 kts | 151° |
| 2026-04-21 15:09 | 30.82191 | -66.72151 | 41183 ft | 555 kts | 152° |
| 2026-04-21 15:10 | 30.75926 | -66.66889 | 41184 ft | 555 kts | 152° |
| 2026-04-21 15:10 | 30.69664 | -66.61623 | 41178 ft | 555 kts | 152° |
| 2026-04-21 15:11 | 30.63418 | -66.56394 | 41152 ft | 556 kts | 152° |
| 2026-04-21 15:11 | 30.57155 | -66.51143 | 41162 ft | 555 kts | 152° |
| 2026-04-21 15:12 | 30.50889 | -66.45912 | 41157 ft | 555 kts | 152° |
| 2026-04-21 15:12 | 30.45680 | -66.41560 | 41155 ft | 555 kts | 152° |
| 2026-04-21 15:13 | 30.39404 | -66.36335 | 41153 ft | 555 kts | 152° |
| 2026-04-21 15:13 | 30.33128 | -66.31113 | 41153 ft | 557 kts | 152° |
| 2026-04-21 15:14 | 30.26840 | -66.25889 | 41155 ft | 556 kts | 152° |
| 2026-04-21 15:14 | 30.20575 | -66.20692 | 41142 ft | 553 kts | 152° |
| 2026-04-21 15:15 | 30.14308 | -66.15507 | 41147 ft | 554 kts | 152° |
| 2026-04-21 15:15 | 30.08045 | -66.10327 | 41139 ft | 554 kts | 152° |
| 2026-04-21 15:16 | 30.01786 | -66.05164 | 41139 ft | 553 kts | 152° |
| 2026-04-21 15:16 | 29.95521 | -66.00000 | 41138 ft | 553 kts | 152° |
| 2026-04-21 15:17 | 29.89252 | -65.94844 | 41130 ft | 553 kts | 152° |
| 2026-04-21 15:17 | 29.83004 | -65.89707 | 41132 ft | 549 kts | 153° |
| 2026-04-21 15:18 | 29.76770 | -65.84602 | 41128 ft | 550 kts | 153° |
| 2026-04-21 15:18 | 29.70533 | -65.79491 | 41127 ft | 550 kts | 152° |
| 2026-04-21 15:19 | 29.64294 | -65.74392 | 41124 ft | 550 kts | 153° |
| 2026-04-21 15:19 | 29.58052 | -65.69295 | 41116 ft | 550 kts | 153° |
| 2026-04-21 15:20 | 29.51848 | -65.64240 | 41117 ft | 550 kts | 153° |
| 2026-04-21 15:20 | 29.45616 | -65.59166 | 41112 ft | 548 kts | 153° |
| 2026-04-21 15:21 | 29.39367 | -65.54094 | 41110 ft | 550 kts | 152° |
| 2026-04-21 15:21 | 29.33127 | -65.49026 | 41109 ft | 550 kts | 152° |
| 2026-04-21 15:22 | 29.26874 | -65.43965 | 41105 ft | 550 kts | 153° |
| 2026-04-21 15:22 | 29.20631 | -65.38913 | 41102 ft | 550 kts | 153° |
| 2026-04-21 15:23 | 29.14382 | -65.33868 | 41102 ft | 550 kts | 153° |
| 2026-04-21 15:23 | 29.08118 | -65.28819 | 41093 ft | 551 kts | 152° |
| 2026-04-21 15:24 | 29.01904 | -65.23813 | 41096 ft | 550 kts | 152° |
| 2026-04-21 15:24 | 28.95647 | -65.18785 | 41092 ft | 550 kts | 152° |
| 2026-04-21 15:25 | 28.89388 | -65.13759 | 41090 ft | 550 kts | 152° |
| 2026-04-21 15:25 | 28.83129 | -65.08743 | 41087 ft | 550 kts | 152° |
| 2026-04-21 15:26 | 28.76874 | -65.03737 | 41102 ft | 549 kts | 152° |
| 2026-04-21 15:26 | 28.70611 | -64.98733 | 41091 ft | 549 kts | 152° |
| 2026-04-21 15:27 | 28.64375 | -64.93753 | 41079 ft | 545 kts | 152° |
| 2026-04-21 15:27 | 28.58158 | -64.88807 | 41078 ft | 545 kts | 152° |
| 2026-04-21 15:28 | 28.51942 | -64.83857 | 41080 ft | 546 kts | 152° |
| 2026-04-21 15:28 | 28.45725 | -64.78920 | 41081 ft | 545 kts | 152° |
| 2026-04-21 15:29 | 28.39511 | -64.73990 | 41081 ft | 545 kts | 152° |
| 2026-04-21 15:29 | 28.33323 | -64.69089 | 41078 ft | 545 kts | 152° |
| 2026-04-21 15:30 | 28.27107 | -64.64172 | 41079 ft | 545 kts | 152° |
| 2026-04-21 15:30 | 28.20880 | -64.59255 | 41075 ft | 545 kts | 152° |
| 2026-04-21 15:31 | 28.14652 | -64.54343 | 41076 ft | 545 kts | 152° |
| 2026-04-21 15:31 | 28.08466 | -64.49472 | 41077 ft | 545 kts | 152° |
| 2026-04-21 15:32 | 28.02244 | -64.44579 | 41076 ft | 545 kts | 153° |
| 2026-04-21 15:32 | 27.96015 | -64.39687 | 41076 ft | 545 kts | 153° |
| 2026-04-21 15:33 | 27.89789 | -64.34805 | 41268 ft | 541 kts | 152° |
| 2026-04-21 15:33 | 27.86786 | -64.32436 | 42622 ft | 512 kts | 153° |
| 2026-04-21 15:33 | 27.83935 | -64.30190 | 43961 ft | 488 kts | 153° |
| 2026-04-21 15:34 | 27.81151 | -64.28031 | 44372 ft | 486 kts | 154° |
| 2026-04-21 15:34 | 27.78353 | -64.25873 | 44665 ft | 487 kts | 154° |
| 2026-04-21 15:34 | 27.75569 | -64.23691 | 44952 ft | 488 kts | 153° |
| 2026-04-21 15:34 | 27.72777 | -64.21492 | 45057 ft | 491 kts | 153° |
| 2026-04-21 15:35 | 27.67075 | -64.17065 | 45065 ft | 504 kts | 153° |
| 2026-04-21 15:35 | 27.61272 | -64.12532 | 45081 ft | 516 kts | 153° |
| 2026-04-21 15:36 | 27.55290 | -64.07885 | 45079 ft | 527 kts | 153° |
| 2026-04-21 15:36 | 27.49191 | -64.03142 | 45068 ft | 538 kts | 153° |
| 2026-04-21 15:37 | 27.42972 | -63.98319 | 45074 ft | 547 kts | 153° |
| 2026-04-21 15:37 | 27.36699 | -63.93455 | 45072 ft | 547 kts | 153° |
| 2026-04-21 15:38 | 27.30423 | -63.88603 | 45073 ft | 548 kts | 153° |
| 2026-04-21 15:38 | 27.24144 | -63.83750 | 45075 ft | 548 kts | 153° |
| 2026-04-21 15:39 | 27.17849 | -63.78895 | 45066 ft | 551 kts | 153° |
| 2026-04-21 15:39 | 27.11535 | -63.74029 | 45061 ft | 550 kts | 152° |
| 2026-04-21 15:40 | 27.05202 | -63.69158 | 45064 ft | 552 kts | 152° |
| 2026-04-21 15:40 | 26.98866 | -63.64288 | 45064 ft | 552 kts | 152° |
| 2026-04-21 15:41 | 26.92573 | -63.59462 | 45067 ft | 552 kts | 152° |
| 2026-04-21 15:41 | 26.86227 | -63.54599 | 45074 ft | 553 kts | 152° |
| 2026-04-21 15:42 | 26.79877 | -63.49739 | 45076 ft | 552 kts | 152° |
| 2026-04-21 15:42 | 26.73523 | -63.44886 | 45074 ft | 552 kts | 152° |
| 2026-04-21 15:43 | 26.67169 | -63.40037 | 45076 ft | 553 kts | 152° |
| 2026-04-21 15:43 | 26.60808 | -63.35191 | 45075 ft | 553 kts | 152° |
| 2026-04-21 15:44 | 26.54463 | -63.30361 | 45078 ft | 551 kts | 152° |
| 2026-04-21 15:44 | 26.48115 | -63.25539 | 45078 ft | 551 kts | 152° |
| 2026-04-21 15:45 | 26.41770 | -63.20723 | 45082 ft | 551 kts | 152° |
| 2026-04-21 15:45 | 26.35469 | -63.15949 | 45082 ft | 551 kts | 152° |
| 2026-04-21 15:46 | 26.29128 | -63.11148 | 45086 ft | 549 kts | 152° |
| 2026-04-21 15:46 | 26.22822 | -63.06383 | 45088 ft | 547 kts | 151° |
| 2026-04-21 15:47 | 26.16513 | -63.01622 | 45092 ft | 548 kts | 151° |
| 2026-04-21 15:47 | 26.10205 | -62.96866 | 45090 ft | 548 kts | 152° |
| 2026-04-21 15:48 | 26.03892 | -62.92116 | 45091 ft | 548 kts | 152° |
| 2026-04-21 15:48 | 25.97581 | -62.87370 | 45089 ft | 548 kts | 152° |
| 2026-04-21 15:49 | 25.91274 | -62.82635 | 45095 ft | 546 kts | 151° |
| 2026-04-21 15:49 | 25.84969 | -62.77908 | 45093 ft | 547 kts | 151° |
| 2026-04-21 15:50 | 25.78658 | -62.73182 | 45095 ft | 547 kts | 151° |
| 2026-04-21 15:50 | 25.72348 | -62.68463 | 45094 ft | 547 kts | 152° |
| 2026-04-21 15:51 | 25.66035 | -62.63748 | 45092 ft | 547 kts | 151° |
| 2026-04-21 15:51 | 25.59721 | -62.59038 | 45090 ft | 547 kts | 151° |
| 2026-04-21 15:52 | 25.53442 | -62.54361 | 45102 ft | 547 kts | 151° |
| 2026-04-21 15:52 | 25.47127 | -62.49662 | 45101 ft | 546 kts | 151° |
| 2026-04-21 15:53 | 25.40812 | -62.44971 | 45098 ft | 546 kts | 151° |
| 2026-04-21 15:53 | 25.34497 | -62.40284 | 45095 ft | 546 kts | 151° |
| 2026-04-21 15:54 | 25.28180 | -62.35602 | 45089 ft | 547 kts | 151° |
| 2026-04-21 15:54 | 25.21860 | -62.30925 | 45102 ft | 547 kts | 151° |
| 2026-04-21 15:55 | 25.15544 | -62.26255 | 45099 ft | 546 kts | 151° |
| 2026-04-21 15:55 | 25.09223 | -62.21589 | 45102 ft | 546 kts | 151° |
| 2026-04-21 15:56 | 25.02941 | -62.16957 | 45104 ft | 546 kts | 151° |
| 2026-04-21 15:56 | 24.96624 | -62.12305 | 45108 ft | 546 kts | 151° |
| 2026-04-21 15:57 | 24.90302 | -62.07655 | 45108 ft | 546 kts | 151° |
| 2026-04-21 15:57 | 24.83978 | -62.03009 | 45108 ft | 546 kts | 151° |
| 2026-04-21 15:58 | 24.77655 | -61.98370 | 45114 ft | 546 kts | 151° |
| 2026-04-21 15:58 | 24.71328 | -61.93734 | 45112 ft | 546 kts | 151° |
| 2026-04-21 15:59 | 24.65002 | -61.89103 | 45108 ft | 547 kts | 151° |
| 2026-04-21 15:59 | 24.59731 | -61.85250 | 45102 ft | 547 kts | 151° |
| 2026-04-21 16:00 | 24.53391 | -61.80621 | 45101 ft | 547 kts | 151° |
| 2026-04-21 16:00 | 24.47045 | -61.75993 | 45108 ft | 547 kts | 151° |
| 2026-04-21 16:01 | 24.40708 | -61.71377 | 45107 ft | 547 kts | 151° |
| 2026-04-21 16:01 | 24.34368 | -61.66764 | 45107 ft | 547 kts | 151° |
| 2026-04-21 16:02 | 24.28027 | -61.62157 | 45106 ft | 546 kts | 151° |
| 2026-04-21 16:02 | 24.21683 | -61.57553 | 45107 ft | 547 kts | 151° |
| 2026-04-21 16:03 | 24.15374 | -61.52979 | 45107 ft | 546 kts | 151° |
| 2026-04-21 16:03 | 24.09035 | -61.48390 | 45105 ft | 546 kts | 151° |
| 2026-04-21 16:04 | 24.02695 | -61.43805 | 45107 ft | 546 kts | 151° |
| 2026-04-21 16:04 | 23.96344 | -61.39218 | 45106 ft | 546 kts | 151° |
| 2026-04-21 16:05 | 23.90004 | -61.34644 | 45106 ft | 546 kts | 151° |
| 2026-04-21 16:05 | 23.83664 | -61.30076 | 45104 ft | 546 kts | 151° |
| 2026-04-21 16:06 | 23.77323 | -61.25513 | 45102 ft | 546 kts | 151° |
| 2026-04-21 16:06 | 23.70975 | -61.20949 | 45103 ft | 546 kts | 151° |
| 2026-04-21 16:07 | 23.64629 | -61.16394 | 45092 ft | 546 kts | 151° |
| 2026-04-21 16:07 | 23.58285 | -61.11844 | 45107 ft | 546 kts | 151° |
| 2026-04-21 16:08 | 23.48815 | -61.05060 | 45110 ft | 546 kts | 151° |
| 2026-04-21 16:09 | 23.42462 | -61.00522 | 45103 ft | 546 kts | 151° |
| 2026-04-21 16:09 | 23.36114 | -60.95986 | 45104 ft | 546 kts | 151° |
| 2026-04-21 16:10 | 23.29771 | -60.91461 | 45110 ft | 544 kts | 151° |
| 2026-04-21 16:10 | 23.23430 | -60.86943 | 45113 ft | 545 kts | 151° |
| 2026-04-21 16:11 | 23.17086 | -60.82428 | 45110 ft | 545 kts | 151° |
| 2026-04-21 16:11 | 23.10738 | -60.77915 | 45111 ft | 545 kts | 151° |
| 2026-04-21 16:12 | 23.04435 | -60.73439 | 45106 ft | 544 kts | 151° |
| 2026-04-21 16:12 | 22.98102 | -60.68948 | 45102 ft | 542 kts | 151° |
| 2026-04-21 16:13 | 22.91783 | -60.64470 | 45107 ft | 542 kts | 151° |
| 2026-04-21 16:13 | 22.85468 | -60.60002 | 45106 ft | 542 kts | 151° |
| 2026-04-21 16:14 | 22.79153 | -60.55537 | 45104 ft | 542 kts | 151° |
| 2026-04-21 16:14 | 22.72834 | -60.51076 | 45106 ft | 542 kts | 151° |
| 2026-04-21 16:15 | 22.66513 | -60.46617 | 45087 ft | 542 kts | 151° |
| 2026-04-21 16:15 | 22.60215 | -60.42179 | 45105 ft | 539 kts | 151° |
| 2026-04-21 16:16 | 22.53961 | -60.37781 | 45100 ft | 539 kts | 151° |
| 2026-04-21 16:16 | 22.47669 | -60.33356 | 45101 ft | 539 kts | 151° |
| 2026-04-21 16:17 | 22.41363 | -60.28930 | 45097 ft | 539 kts | 151° |
| 2026-04-21 16:17 | 22.35073 | -60.24517 | 45098 ft | 539 kts | 151° |
| 2026-04-21 16:18 | 22.28787 | -60.20111 | 45104 ft | 538 kts | 151° |
| 2026-04-21 16:18 | 22.22512 | -60.15720 | 45100 ft | 536 kts | 151° |
| 2026-04-21 16:19 | 22.16252 | -60.11344 | 45092 ft | 536 kts | 151° |
| 2026-04-21 16:19 | 22.09987 | -60.06969 | 45092 ft | 536 kts | 151° |
| 2026-04-21 16:20 | 22.03542 | -60.03014 | 45087 ft | 529 kts | 162° |
| 2026-04-21 16:20 | 21.96536 | -60.01116 | 45084 ft | 513 kts | 179° |
| 2026-04-21 16:21 | 21.89507 | -60.01494 | 45094 ft | 501 kts | 195° |
| 2026-04-21 16:21 | 21.82686 | -60.03013 | 45101 ft | 501 kts | 196° |
| 2026-04-21 16:22 | 21.75753 | -60.04044 | 45100 ft | 504 kts | 192° |
| 2026-04-21 16:22 | 21.68894 | -60.05251 | 45102 ft | 502 kts | 195° |
| 2026-04-21 16:23 | 21.61937 | -60.06407 | 45100 ft | 503 kts | 193° |
| 2026-04-21 16:23 | 21.55071 | -60.07551 | 45100 ft | 502 kts | 194° |
| 2026-04-21 16:24 | 21.48167 | -60.08722 | 45097 ft | 503 kts | 193° |
| 2026-04-21 16:24 | 21.41262 | -60.09863 | 45090 ft | 501 kts | 194° |
| 2026-04-21 16:25 | 21.34368 | -60.11029 | 45092 ft | 502 kts | 194° |
| 2026-04-21 16:25 | 21.27475 | -60.12171 | 45092 ft | 501 kts | 194° |
| 2026-04-21 16:26 | 21.20577 | -60.13329 | 45084 ft | 501 kts | 194° |
| 2026-04-21 16:26 | 21.13684 | -60.14473 | 45083 ft | 500 kts | 194° |
| 2026-04-21 16:27 | 21.06799 | -60.15625 | 45082 ft | 500 kts | 194° |
| 2026-04-21 16:27 | 20.99922 | -60.16767 | 45080 ft | 500 kts | 194° |
| 2026-04-21 16:28 | 20.93074 | -60.17907 | 45081 ft | 502 kts | 194° |
| 2026-04-21 16:28 | 20.86164 | -60.19053 | 45081 ft | 500 kts | 194° |
| 2026-04-21 16:29 | 20.79281 | -60.20198 | 45081 ft | 501 kts | 194° |
| 2026-04-21 16:29 | 20.72396 | -60.21338 | 45083 ft | 501 kts | 194° |
| 2026-04-21 16:30 | 20.65513 | -60.22480 | 45080 ft | 501 kts | 194° |
| 2026-04-21 16:30 | 20.58626 | -60.23618 | 45082 ft | 500 kts | 194° |
| 2026-04-21 16:31 | 20.51745 | -60.24758 | 45080 ft | 500 kts | 194° |
| 2026-04-21 16:31 | 20.44863 | -60.25894 | 45081 ft | 500 kts | 194° |
| 2026-04-21 16:32 | 20.38024 | -60.27023 | 45078 ft | 500 kts | 194° |
| 2026-04-21 16:32 | 20.31151 | -60.28156 | 45075 ft | 500 kts | 194° |
| 2026-04-21 16:33 | 20.24271 | -60.29291 | 45068 ft | 500 kts | 194° |
| 2026-04-21 16:33 | 20.17387 | -60.30424 | 45068 ft | 500 kts | 194° |
| 2026-04-21 16:34 | 20.10513 | -60.31555 | 45071 ft | 500 kts | 194° |
| 2026-04-21 16:34 | 20.03630 | -60.32686 | 45070 ft | 500 kts | 194° |
| 2026-04-21 16:35 | 19.96755 | -60.33815 | 45062 ft | 500 kts | 194° |
| 2026-04-21 16:35 | 19.89873 | -60.34943 | 45063 ft | 500 kts | 194° |
| 2026-04-21 16:36 | 19.83408 | -60.36003 | 45066 ft | 500 kts | 194° |
| 2026-04-21 16:36 | 19.76523 | -60.37131 | 45064 ft | 500 kts | 194° |
| 2026-04-21 16:37 | 19.69639 | -60.38257 | 45068 ft | 501 kts | 194° |
| 2026-04-21 16:37 | 19.62752 | -60.39383 | 45065 ft | 501 kts | 194° |
| 2026-04-21 16:38 | 19.55903 | -60.40502 | 45059 ft | 500 kts | 194° |
| 2026-04-21 16:38 | 19.49021 | -60.41625 | 45059 ft | 500 kts | 194° |
| 2026-04-21 16:39 | 19.42140 | -60.42747 | 45070 ft | 500 kts | 194° |
| 2026-04-21 16:39 | 19.35263 | -60.43868 | 45067 ft | 500 kts | 194° |
| 2026-04-21 16:40 | 19.28391 | -60.44986 | 45060 ft | 500 kts | 194° |
| 2026-04-21 16:40 | 19.21511 | -60.46105 | 45061 ft | 500 kts | 194° |
| 2026-04-21 16:41 | 19.15790 | -60.47035 | 45065 ft | 502 kts | 194° |
| 2026-04-21 16:41 | 19.07710 | -60.48347 | 45062 ft | 502 kts | 194° |
| 2026-04-21 16:42 | 19.00804 | -60.49467 | 45058 ft | 502 kts | 194° |
| 2026-04-21 16:42 | 18.93896 | -60.50587 | 45056 ft | 502 kts | 194° |
| 2026-04-21 16:43 | 18.86991 | -60.51705 | 45052 ft | 502 kts | 194° |
| 2026-04-21 16:43 | 18.80084 | -60.52823 | 45051 ft | 502 kts | 194° |
| 2026-04-21 16:44 | 18.74344 | -60.53751 | 45058 ft | 502 kts | 194° |
| 2026-04-21 16:44 | 18.67437 | -60.54867 | 45058 ft | 502 kts | 194° |
| 2026-04-21 16:45 | 18.60528 | -60.55983 | 45037 ft | 502 kts | 194° |
| 2026-04-21 16:45 | 18.53620 | -60.57097 | 45051 ft | 502 kts | 194° |
| 2026-04-21 16:46 | 18.46707 | -60.58211 | 45051 ft | 502 kts | 194° |
| 2026-04-21 16:46 | 18.39788 | -60.59326 | 45051 ft | 502 kts | 194° |
| 2026-04-21 16:47 | 18.32876 | -60.60438 | 45047 ft | 502 kts | 194° |
| 2026-04-21 16:47 | 18.25965 | -60.61549 | 45051 ft | 502 kts | 194° |
| 2026-04-21 16:48 | 18.19097 | -60.62653 | 45051 ft | 502 kts | 194° |
| 2026-04-21 16:48 | 18.12185 | -60.63762 | 45047 ft | 502 kts | 194° |
| 2026-04-21 16:49 | 18.05274 | -60.64871 | 45044 ft | 502 kts | 194° |